Terminal Aerodrome Forecast
Issued by NWS

Home | Current Version | Previous Version | Text Only | Print | Product List | Glossary On
Versions: 1 2 3 4 5 6 7 8 9 10 11 12
000
FTUS45 KRIW 180500
TAFBPI
TAF
KBPI 180532Z 1806/1906 01007KT P6SM FEW120
     FM181200 VRB04KT P6SM SCT150
     FM182100 02008KT P6SM VCTS SCT090CB
     FM190400 34006KT P6SM VCSH SCT110=

USA.gov is the U.S. government's official web portal to all federal, state and local government web resources and services.